Terminal Aerodrome Forecast
Issued by NWS

Home | Current Version | Previous Version | Text Only | Print | Product List | Glossary On
Versions: 1 2 3 4 5 6 7 8 9 10 11 12
000
FTAK31 PANC 311140
TAFAEN
TAF
PAEN 311140Z 3112/0112 04005KT P6SM SKC
     FM312100 03011KT P6SM SCT050 BKN100
     FM010400 02016KT P6SM VCSH SCT040 BKN080=

USA.gov is the U.S. government's official web portal to all federal, state and local government web resources and services.